Bijie, China
Current Conditions -  °F | °C
As of 8:00 PM on Thursday 23 Oct 2014 (Local Time) from ZUGY Reporting Station
Haze Haze  
Wind Chill: 55°   Ceiling: Unl
Heat Index: 55°   Visibility: 3mi
Dew Point: 54°   Wind: 7mph
Humidity: 94%   Direction: 30°NNE
Pressure: 30.15"   Gusts: NA
Location:  27.31°N, 105.28°E
Report Text: ZUGY 231200Z 03003MPS 5000 BR FEW023 13/12 Q1021 NOSIG
Loading
Personal Weather Stations






























Interactive Weather Map
Tropical Storm Tracking
New forecast layout! Learn more

10-Day Weather Forecast

Advertisements
Track Severe Weather on mobile